createdAt,value
2022-08-22T00:02:01.796Z,100455.03
2022-08-22T00:02:45.979Z,100383.78
2022-08-22T00:02:49.499Z,100408.53
2022-08-22T00:02:55.439Z,100450.41
2022-08-22T00:03:00.888Z,100394.16
2022-08-22T00:03:04.492Z,100423.59
2022-08-22T00:03:07.175Z,100372.28
2022-08-22T00:03:07.844Z,100377.50
2022-08-22T00:04:52.173Z,100458.78
2022-08-22T00:07:26.524Z,100445.94
2022-08-22T00:09:57.738Z,100461.47
2022-08-22T00:12:34.510Z,100458.22
2022-08-22T00:15:44.224Z,100453.91
2022-08-22T00:18:18.755Z,100456.91
2022-08-22T00:20:51.758Z,100452.53
2022-08-22T00:23:27.683Z,100452.81
2022-08-22T00:26:31.896Z,100451.91
2022-08-22T00:29:08.825Z,100447.38
2022-08-22T00:31:39.897Z,100441.03
2022-08-22T00:34:23.016Z,100441.56
2022-08-22T00:37:03.049Z,100444.81
2022-08-22T00:39:43.366Z,100438.94
2022-08-22T00:42:54.920Z,100445.59
2022-08-22T00:45:30.980Z,100442.59
2022-08-22T00:48:06.751Z,100444.03
2022-08-22T00:50:46.024Z,100444.38
2022-08-22T00:53:37.976Z,100443.41
2022-08-22T00:56:28.288Z,100437.16
2022-08-22T00:59:23.307Z,100435.75
2022-08-22T01:02:09.824Z,100436.63
2022-08-22T01:05:05.872Z,100441.06
2022-08-22T01:07:52.469Z,100439.88
2022-08-22T01:10:33.957Z,100442.91
2022-08-22T01:13:28.147Z,100444.47
2022-08-22T01:16:18.183Z,100432.78
2022-08-22T01:18:59.600Z,100428.63
2022-08-22T01:22:03.672Z,100429.63
2022-08-22T01:25:21.462Z,100436.63
2022-08-22T01:28:16.485Z,100432.94
2022-08-22T01:31:10.688Z,100436.47
2022-08-22T01:34:14.730Z,100435.97
2022-08-22T01:36:59.797Z,100425.09
2022-08-22T01:39:45.205Z,100427.34
2022-08-22T01:42:36.523Z,100425.41
2022-08-22T01:45:26.172Z,100422.38
2022-08-22T01:47:59.764Z,100416.91
2022-08-22T01:50:47.556Z,100420.22
2022-08-22T01:53:22.848Z,100416.84
2022-08-22T01:56:05.911Z,100421.06
2022-08-22T01:58:37.099Z,100414.34
2022-08-22T02:01:11.723Z,100421.59
2022-08-22T02:03:58.577Z,100416.47
2022-08-22T02:06:59.099Z,100426.16
2022-08-22T02:09:36.135Z,100421.59
2022-08-22T02:12:21.557Z,100424.34
2022-08-22T02:15:14.636Z,100420.56
2022-08-22T02:18:01.257Z,100418.34
2022-08-22T02:20:43.181Z,100410.28
2022-08-22T02:23:48.129Z,100421.16
2022-08-22T02:26:19.977Z,100413.78
2022-08-22T02:28:59.373Z,100416.16
2022-08-22T02:31:28.603Z,100411.81
2022-08-22T02:34:02.339Z,100416.22
2022-08-22T02:36:34.017Z,100415.50
2022-08-22T02:39:15.901Z,100413.69
2022-08-22T02:42:11.408Z,100419.63
2022-08-22T02:44:55.482Z,100414.84
2022-08-22T02:47:23.684Z,100418.84
2022-08-22T02:50:05.114Z,100414.13
2022-08-22T02:52:46.986Z,100420.34
2022-08-22T02:55:19.901Z,100418.03
2022-08-22T02:57:56.797Z,100413.09
2022-08-22T03:00:31.312Z,100420.81
2022-08-22T03:02:59.674Z,100415.13
2022-08-22T03:05:38.338Z,100416.13
2022-08-22T03:08:08.835Z,100409.06
2022-08-22T03:10:41.343Z,100416.28
2022-08-22T03:13:12.287Z,100411.28
2022-08-22T03:15:49.350Z,100415.66
2022-08-22T03:18:43.224Z,100403.78
2022-08-22T03:21:28.002Z,100410.38
2022-08-22T03:24:01.718Z,100412.38
2022-08-22T03:26:41.210Z,100410.88
2022-08-22T03:29:31.182Z,100411.47
2022-08-22T03:32:22.377Z,100404.91
2022-08-22T03:35:05.230Z,100403.97
2022-08-22T03:37:31.682Z,100406.41
2022-08-22T03:40:31.700Z,100403.41
2022-08-22T03:43:25.710Z,100400.84
2022-08-22T03:46:23.893Z,100411.81
2022-08-22T03:49:13.892Z,100407.28
2022-08-22T03:51:55.253Z,100418.13
2022-08-22T03:54:40.642Z,100417.06
2022-08-22T03:57:32.394Z,100429.03
2022-08-22T04:00:10.500Z,100429.94
2022-08-22T04:03:11.643Z,100432.78
2022-08-22T04:05:44.108Z,100429.06
2022-08-22T04:08:33.199Z,100431.69
2022-08-22T04:11:21.495Z,100433.25
2022-08-22T04:13:59.269Z,100433.53
2022-08-22T04:16:53.782Z,100432.41
2022-08-22T04:19:40.853Z,100437.75
2022-08-22T04:22:29.846Z,100441.63
2022-08-22T04:25:08.886Z,100448.91
2022-08-22T04:27:55.681Z,100441.28
2022-08-22T04:30:33.157Z,100447.88
2022-08-22T04:33:09.050Z,100443.28
2022-08-22T04:36:10.138Z,100442.53
2022-08-22T04:38:43.229Z,100437.50
2022-08-22T04:41:13.829Z,100443.59
2022-08-22T04:44:14.918Z,100444.75
2022-08-22T04:46:57.765Z,100446.66
2022-08-22T04:49:47.853Z,100459.25
2022-08-22T04:52:40.884Z,100448.59
2022-08-22T04:55:39.590Z,100445.56
2022-08-22T04:58:20.169Z,100450.16
2022-08-22T05:00:56.943Z,100457.03
2022-08-22T05:03:26.725Z,100459.31
2022-08-22T05:05:55.590Z,100462.31
2022-08-22T05:08:26.817Z,100459.16
2022-08-22T05:10:54.453Z,100463.47
2022-08-22T05:13:30.571Z,100466.13
2022-08-22T05:16:03.252Z,100468.84
2022-08-22T05:18:36.272Z,100462.16
2022-08-22T05:21:07.615Z,100461.81
2022-08-22T05:23:49.689Z,100468.81
2022-08-22T05:26:17.500Z,100459.44
2022-08-22T05:28:52.957Z,100468.81
2022-08-22T05:31:30.297Z,100456.06
2022-08-22T05:34:05.622Z,100456.88
2022-08-22T05:36:37.869Z,100460.66
2022-08-22T05:39:18.601Z,100462.91
2022-08-22T05:41:45.812Z,100456.56
2022-08-22T05:44:27.995Z,100465.66
2022-08-22T05:47:00.052Z,100454.75
2022-08-22T05:49:36.314Z,100461.41
2022-08-22T05:52:06.873Z,100459.06
2022-08-22T05:54:48.074Z,100467.41
2022-08-22T05:57:33.551Z,100470.13
2022-08-22T06:00:19.124Z,100468.66
2022-08-22T06:03:08.206Z,100469.25
2022-08-22T06:05:42.826Z,100473.78
2022-08-22T06:08:38.624Z,100479.81
2022-08-22T06:11:25.503Z,100474.88
2022-08-22T06:14:12.940Z,100473.75
2022-08-22T06:16:50.630Z,100469.78
2022-08-22T06:19:20.213Z,100470.69
2022-08-22T06:21:50.741Z,100473.25
2022-08-22T06:24:27.260Z,100475.31
2022-08-22T06:26:58.908Z,100477.84
2022-08-22T06:29:43.387Z,100472.78
2022-08-22T06:32:27.891Z,100474.44
2022-08-22T06:35:14.014Z,100479.84
2022-08-22T06:37:45.940Z,100488.19
2022-08-22T06:40:15.531Z,100495.69
2022-08-22T06:42:47.325Z,100489.94
2022-08-22T06:45:22.962Z,100499.09
2022-08-22T06:47:53.548Z,100493.94
2022-08-22T06:50:36.513Z,100499.06
2022-08-22T06:53:08.104Z,100497.56
2022-08-22T06:55:37.699Z,100493.41
2022-08-22T06:58:13.359Z,100487.25
2022-08-22T07:00:42.498Z,100491.66
2022-08-22T07:03:26.903Z,100493.84
2022-08-22T07:05:57.158Z,100493.00
2022-08-22T07:08:26.207Z,100498.75
2022-08-22T07:11:28.769Z,100493.72
2022-08-22T07:14:07.880Z,100498.09
2022-08-22T07:16:42.399Z,100493.78
2022-08-22T07:19:21.951Z,100495.81
2022-08-22T07:21:48.831Z,100501.28
2022-08-22T07:24:20.080Z,100499.97
2022-08-22T07:27:09.752Z,100499.84
2022-08-22T07:29:48.270Z,100510.34
2022-08-22T07:32:18.630Z,100506.09
2022-08-22T07:35:08.922Z,100500.69
2022-08-22T07:37:36.554Z,100498.22
2022-08-22T07:40:22.681Z,100507.34
2022-08-22T07:42:52.138Z,100505.84
2022-08-22T07:45:31.949Z,100514.19
2022-08-22T07:48:25.097Z,100517.78
2022-08-22T07:51:07.802Z,100506.50
2022-08-22T07:53:37.325Z,100516.56
2022-08-22T07:56:07.330Z,100522.06
2022-08-22T07:58:37.973Z,100515.78
2022-08-22T08:01:08.209Z,100510.38
2022-08-22T08:03:35.632Z,100506.88
2022-08-22T08:06:03.150Z,100515.78
2022-08-22T08:08:35.699Z,100510.91
2022-08-22T08:11:03.858Z,100510.34
2022-08-22T08:13:35.578Z,100513.06
2022-08-22T08:16:06.507Z,100506.66
2022-08-22T08:18:36.697Z,100505.94
2022-08-22T08:21:07.168Z,100509.91
2022-08-22T08:23:42.927Z,100514.59
2022-08-22T08:26:17.317Z,100513.53
2022-08-22T08:28:50.147Z,100513.03
2022-08-22T08:31:31.890Z,100514.84
2022-08-22T08:34:08.099Z,100515.06
2022-08-22T08:36:53.103Z,100505.56
2022-08-22T08:39:34.977Z,100505.06
2022-08-22T08:42:20.546Z,100508.63
2022-08-22T08:44:58.942Z,100511.25
2022-08-22T08:47:46.133Z,100506.53
2022-08-22T08:50:29.816Z,100511.66
2022-08-22T08:53:19.066Z,100510.13
2022-08-22T08:56:02.893Z,100502.09
2022-08-22T08:58:48.765Z,100504.53
2022-08-22T09:01:36.312Z,100508.41
2022-08-22T09:04:27.138Z,100500.88
2022-08-22T09:07:15.846Z,100507.28
2022-08-22T09:10:10.117Z,100497.63
2022-08-22T09:13:15.732Z,100508.38
2022-08-22T09:16:06.572Z,100502.44
2022-08-22T09:18:56.900Z,100491.72
2022-08-22T09:21:33.176Z,100500.50
2022-08-22T09:24:04.247Z,100492.47
2022-08-22T09:26:47.962Z,100496.56
2022-08-22T09:29:33.533Z,100502.31
2022-08-22T09:32:13.140Z,100487.50
2022-08-22T09:35:07.285Z,100485.81
2022-08-22T09:37:56.900Z,100490.47
2022-08-22T09:40:41.122Z,100479.97
2022-08-22T09:43:21.053Z,100479.00
2022-08-22T09:46:06.775Z,100491.78
2022-08-22T09:49:00.375Z,100468.03
2022-08-22T09:51:38.721Z,100466.41
2022-08-22T09:54:31.451Z,100474.00
2022-08-22T09:57:02.176Z,100457.56
2022-08-22T09:59:35.713Z,100459.69
2022-08-22T10:02:15.477Z,100458.97
2022-08-22T10:05:44.251Z,100452.59
2022-08-22T10:08:30.213Z,100452.72
2022-08-22T10:11:08.406Z,100441.78
2022-08-22T10:13:44.361Z,100437.56
2022-08-22T10:16:24.341Z,100444.75
2022-08-22T10:19:18.036Z,100432.22
2022-08-22T10:22:17.254Z,100430.47
2022-08-22T10:24:55.865Z,100442.38
2022-08-22T10:27:50.818Z,100429.94
2022-08-22T10:30:27.663Z,100425.91
2022-08-22T10:33:02.211Z,100421.84
2022-08-22T10:35:34.298Z,100420.78
2022-08-22T10:38:14.187Z,100422.78
2022-08-22T10:41:18.008Z,100423.38
2022-08-22T10:44:00.925Z,100425.22
2022-08-22T10:46:36.807Z,100410.53
2022-08-22T10:49:18.153Z,100419.78
2022-08-22T10:51:51.647Z,100407.19
2022-08-22T10:54:46.111Z,100412.63
2022-08-22T10:57:30.748Z,100407.44
2022-08-22T11:00:37.262Z,100404.50
2022-08-22T11:03:24.943Z,100402.00
2022-08-22T11:05:54.333Z,100413.34
2022-08-22T11:09:10.679Z,100399.38
2022-08-22T11:11:45.472Z,100410.91
2022-08-22T11:14:22.563Z,100399.59
2022-08-22T11:17:02.905Z,100402.47
2022-08-22T11:20:10.517Z,100407.59
2022-08-22T11:22:55.638Z,100397.97
2022-08-22T11:25:41.090Z,100395.84
2022-08-22T11:28:37.470Z,100404.31
2022-08-22T11:31:09.206Z,100402.59
2022-08-22T11:33:54.560Z,100405.09
2022-08-22T11:36:39.133Z,100405.34
2022-08-22T11:39:21.660Z,100390.50
2022-08-22T11:42:12.106Z,100393.75
2022-08-22T11:44:50.956Z,100387.53
2022-08-22T11:47:28.343Z,100377.59
2022-08-22T11:50:13.314Z,100388.47
2022-08-22T11:52:56.232Z,100382.22
2022-08-22T11:55:34.499Z,100389.41
2022-08-22T11:58:46.444Z,100378.16
2022-08-22T12:01:18.753Z,100377.03
2022-08-22T12:04:03.490Z,100381.44
2022-08-22T12:06:45.329Z,100377.19
2022-08-22T12:09:25.223Z,100368.31
2022-08-22T12:12:04.554Z,100368.19
2022-08-22T12:15:10.898Z,100369.13
2022-08-22T12:18:15.326Z,100364.09
2022-08-22T12:21:14.684Z,100365.75
2022-08-22T12:24:06.301Z,100363.13
2022-08-22T12:27:02.436Z,100355.22
2022-08-22T12:29:50.583Z,100354.72
2022-08-22T12:32:33.348Z,100349.06
2022-08-22T12:35:15.060Z,100337.31
2022-08-22T12:38:26.722Z,100335.50
2022-08-22T12:41:13.619Z,100345.34
2022-08-22T12:44:05.014Z,100333.81
2022-08-22T12:46:50.110Z,100337.06
2022-08-22T12:50:01.713Z,100336.22
2022-08-22T12:53:00.661Z,100329.47
2022-08-22T12:55:33.726Z,100324.38
2022-08-22T12:58:42.057Z,100315.97
2022-08-22T13:01:10.777Z,100316.41
2022-08-22T13:03:46.161Z,100313.91
2022-08-22T13:06:42.590Z,100312.16
2022-08-22T13:09:32.558Z,100314.63
2022-08-22T13:12:22.662Z,100315.94
2022-08-22T13:14:54.773Z,100314.03
2022-08-22T13:17:25.337Z,100311.47
2022-08-22T13:20:10.240Z,100317.13
2022-08-22T13:22:45.331Z,100313.84
2022-08-22T13:25:26.643Z,100304.72
2022-08-22T13:27:59.482Z,100296.63
2022-08-22T13:30:38.670Z,100305.56
2022-08-22T13:33:16.261Z,100287.16
2022-08-22T13:35:55.222Z,100296.84
2022-08-22T13:38:29.998Z,100297.22
2022-08-22T13:40:58.355Z,100303.91
2022-08-22T13:43:30.221Z,100295.44
2022-08-22T13:46:02.069Z,100298.66
2022-08-22T13:48:49.503Z,100298.81
2022-08-22T13:51:29.421Z,100297.13
2022-08-22T13:54:20.000Z,100285.06
2022-08-22T13:57:18.324Z,100286.56
2022-08-22T14:00:01.566Z,100290.31
2022-08-22T14:02:34.373Z,100283.22
2022-08-22T14:05:06.784Z,100275.22
2022-08-22T14:07:38.778Z,100274.97
2022-08-22T14:10:23.693Z,100272.56
2022-08-22T14:12:56.278Z,100278.75
2022-08-22T14:15:41.590Z,100281.94
2022-08-22T14:18:30.242Z,100280.19
2022-08-22T14:21:29.097Z,100272.91
2022-08-22T14:24:18.974Z,100259.13
2022-08-22T14:27:14.562Z,100264.06
2022-08-22T14:29:53.022Z,100274.53
2022-08-22T14:32:25.235Z,100262.44
2022-08-22T14:35:16.952Z,100259.44
2022-08-22T14:37:57.363Z,100259.56
2022-08-22T14:40:36.294Z,100271.94
2022-08-22T14:43:35.383Z,100256.81
2022-08-22T14:46:14.245Z,100251.13
2022-08-22T14:48:55.784Z,100243.66
2022-08-22T14:51:25.100Z,100248.50
2022-08-22T14:53:52.163Z,100241.88
2022-08-22T14:56:27.796Z,100238.94
2022-08-22T14:59:03.533Z,100247.88
2022-08-22T15:01:32.881Z,100245.91
2022-08-22T15:04:06.332Z,100235.25
2022-08-22T15:06:37.082Z,100229.19
2022-08-22T15:09:08.349Z,100227.75
2022-08-22T15:11:37.260Z,100223.53
2022-08-22T15:14:23.526Z,100230.28
2022-08-22T15:16:56.440Z,100238.19
2022-08-22T15:19:32.764Z,100235.94
2022-08-22T15:22:25.705Z,100236.34
2022-08-22T15:25:05.695Z,100232.44
2022-08-22T15:27:45.173Z,100237.38
2022-08-22T15:30:20.411Z,100228.44
2022-08-22T15:32:48.980Z,100225.06
2022-08-22T15:35:31.296Z,100214.09
2022-08-22T15:38:06.734Z,100224.66
2022-08-22T15:40:43.259Z,100231.19
2022-08-22T15:43:35.666Z,100227.75
2022-08-22T15:46:28.703Z,100224.38
2022-08-22T15:49:00.142Z,100219.50
2022-08-22T15:51:46.381Z,100226.03
2022-08-22T15:54:25.177Z,100220.50
2022-08-22T15:56:51.990Z,100227.34
2022-08-22T15:59:29.370Z,100214.69
2022-08-22T16:02:05.083Z,100217.22
2022-08-22T16:05:00.206Z,100221.22
2022-08-22T16:07:32.796Z,100216.78
2022-08-22T16:10:00.181Z,100216.78
2022-08-22T16:12:37.241Z,100212.50
2022-08-22T16:15:26.036Z,100223.00
2022-08-22T16:17:54.044Z,100217.94
2022-08-22T16:20:20.601Z,100211.25
2022-08-22T16:22:59.263Z,100216.09
2022-08-22T16:25:44.381Z,100206.66
2022-08-22T16:28:36.088Z,100211.41
2022-08-22T16:31:18.840Z,100210.13
2022-08-22T16:33:46.760Z,100203.25
2022-08-22T16:36:16.661Z,100199.06
2022-08-22T16:38:48.320Z,100206.94
2022-08-22T16:41:28.929Z,100198.31
2022-08-22T16:44:14.326Z,100201.03
2022-08-22T16:46:46.223Z,100193.81
2022-08-22T16:49:29.532Z,100191.88
2022-08-22T16:52:21.219Z,100191.53
2022-08-22T16:55:09.334Z,100193.56
2022-08-22T16:58:06.365Z,100192.69
2022-08-22T17:00:41.788Z,100191.00
2022-08-22T17:03:20.316Z,100202.97
2022-08-22T17:06:25.903Z,100197.63
2022-08-22T17:09:00.894Z,100203.38
2022-08-22T17:12:21.234Z,100208.53
2022-08-22T17:15:21.955Z,100204.97
2022-08-22T17:18:32.274Z,100210.69
2022-08-22T17:21:11.443Z,100202.84
2022-08-22T17:23:53.341Z,100207.03
2022-08-22T17:27:04.880Z,100209.19
2022-08-22T17:29:53.669Z,100204.88
2022-08-22T17:32:46.595Z,100207.50
2022-08-22T17:35:27.283Z,100211.56
2022-08-22T17:38:00.144Z,100214.66
2022-08-22T17:40:56.362Z,100216.19
2022-08-22T17:43:48.983Z,100216.56
2022-08-22T17:46:28.358Z,100214.78
2022-08-22T17:49:02.437Z,100215.59
2022-08-22T17:51:58.455Z,100220.88
2022-08-22T17:55:01.040Z,100217.03
2022-08-22T17:57:36.492Z,100219.56
2022-08-22T18:00:18.238Z,100219.38
2022-08-22T18:02:51.183Z,100220.91
2022-08-22T18:05:25.208Z,100221.97
2022-08-22T18:08:05.947Z,100227.81
2022-08-22T18:10:46.026Z,100220.91
2022-08-22T18:13:42.575Z,100224.03
2022-08-22T18:16:24.838Z,100231.56
2022-08-22T18:19:04.486Z,100223.31
2022-08-22T18:21:35.300Z,100224.56
2022-08-22T18:24:17.270Z,100231.72
2022-08-22T18:27:02.593Z,100236.06
2022-08-22T18:29:50.458Z,100231.47
2022-08-22T18:32:24.095Z,100226.03
2022-08-22T18:35:27.067Z,100242.31
2022-08-22T18:38:21.968Z,100242.13
2022-08-22T18:41:12.463Z,100241.63
2022-08-22T18:43:48.118Z,100244.25
2022-08-22T18:46:40.359Z,100252.16
2022-08-22T18:49:15.576Z,100253.78
2022-08-22T18:51:43.431Z,100259.22
2022-08-22T18:54:11.372Z,100255.47
2022-08-22T18:56:47.772Z,100257.41
2022-08-22T18:59:44.062Z,100258.84
2022-08-22T19:02:31.170Z,100266.53
2022-08-22T19:05:11.953Z,100267.47
2022-08-22T19:08:00.934Z,100264.84
2022-08-22T19:10:36.687Z,100263.25
2022-08-22T19:13:40.744Z,100271.69
2022-08-22T19:16:25.505Z,100274.44
2022-08-22T19:19:03.333Z,100275.88
2022-08-22T19:21:53.456Z,100277.38
2022-08-22T19:24:19.978Z,100272.38
2022-08-22T19:26:51.211Z,100281.59
2022-08-22T19:29:17.738Z,100275.53
2022-08-22T19:31:50.412Z,100275.03
2022-08-22T19:34:35.294Z,100275.66
2022-08-22T19:37:32.077Z,100286.78
2022-08-22T19:40:11.572Z,100284.03
2022-08-22T19:42:41.345Z,100282.97
2022-08-22T19:45:26.436Z,100286.59
2022-08-22T19:48:14.617Z,100283.47
2022-08-22T19:50:42.993Z,100285.03
2022-08-22T19:53:56.045Z,100282.03
2022-08-22T19:57:06.090Z,100291.69
2022-08-22T19:59:50.402Z,100284.47
2022-08-22T20:02:50.285Z,100284.34
2022-08-22T20:05:27.588Z,100284.91
2022-08-22T20:08:25.433Z,100292.53
2022-08-22T20:11:13.142Z,100290.50
2022-08-22T20:13:39.794Z,100293.63
2022-08-22T20:16:13.439Z,100290.56
2022-08-22T20:19:06.470Z,100292.66
2022-08-22T20:21:45.957Z,100295.41
2022-08-22T20:24:43.834Z,100293.09
2022-08-22T20:27:35.811Z,100282.72
2022-08-22T20:30:24.873Z,100284.84
2022-08-22T20:33:08.299Z,100286.84
2022-08-22T20:35:43.471Z,100294.06
2022-08-22T20:38:15.520Z,100296.38
2022-08-22T20:40:56.400Z,100298.19
2022-08-22T20:43:34.804Z,100304.09
2022-08-22T20:46:12.365Z,100307.50
2022-08-22T20:48:42.625Z,100304.25
2022-08-22T20:51:15.388Z,100308.75
2022-08-22T20:53:42.269Z,100307.44
2022-08-22T20:56:09.548Z,100309.97
2022-08-22T20:58:39.874Z,100309.66
2022-08-22T21:01:11.234Z,100318.94
2022-08-22T21:03:47.660Z,100312.66
2022-08-22T21:06:29.818Z,100316.63
2022-08-22T21:09:37.413Z,100317.19
2022-08-22T21:12:08.999Z,100311.63
2022-08-22T21:14:44.394Z,100315.22
2022-08-22T21:17:34.214Z,100318.19
2022-08-22T21:20:22.707Z,100318.84
2022-08-22T21:22:50.281Z,100324.28
2022-08-22T21:25:16.938Z,100319.88
2022-08-22T21:27:47.536Z,100334.16
2022-08-22T21:30:23.018Z,100343.00
2022-08-22T21:32:55.517Z,100347.63
2022-08-22T21:35:24.896Z,100350.34
2022-08-22T21:37:51.810Z,100353.25
2022-08-22T21:40:32.316Z,100348.38
2022-08-22T21:43:08.016Z,100347.53
2022-08-22T21:45:42.869Z,100343.97
2022-08-22T21:48:31.286Z,100345.25
2022-08-22T21:51:40.820Z,100348.81
2022-08-22T21:54:25.456Z,100344.34
2022-08-22T21:56:55.391Z,100350.75
2022-08-22T21:59:52.228Z,100347.53
2022-08-22T22:02:29.497Z,100356.28
2022-08-22T22:04:59.213Z,100353.28
2022-08-22T22:07:26.534Z,100355.91
2022-08-22T22:09:54.944Z,100365.66
2022-08-22T22:12:22.922Z,100369.97
2022-08-22T22:14:49.967Z,100365.97
2022-08-22T22:17:18.688Z,100365.22
2022-08-22T22:19:46.008Z,100375.69
2022-08-22T22:22:12.630Z,100373.78
2022-08-22T22:24:39.301Z,100373.44
2022-08-22T22:27:06.299Z,100367.19
2022-08-22T22:29:33.623Z,100379.06
2022-08-22T22:32:00.158Z,100374.97
2022-08-22T22:34:26.970Z,100382.00
2022-08-22T22:36:54.393Z,100371.19
2022-08-22T22:39:21.200Z,100379.94
2022-08-22T22:41:48.965Z,100381.34
2022-08-22T22:44:15.582Z,100386.66
2022-08-22T22:46:42.070Z,100384.91
2022-08-22T22:49:08.641Z,100389.66
2022-08-22T22:51:35.129Z,100392.47
2022-08-22T22:54:01.627Z,100388.91
2022-08-22T22:56:28.599Z,100391.16
2022-08-22T22:58:59.267Z,100390.41
2022-08-22T23:01:30.208Z,100396.84
2022-08-22T23:03:58.610Z,100400.09
2022-08-22T23:06:32.711Z,100391.13
2022-08-22T23:08:59.351Z,100399.22
2022-08-22T23:11:29.705Z,100399.94
2022-08-22T23:13:56.858Z,100404.84
2022-08-22T23:16:26.762Z,100405.56
2022-08-22T23:18:53.465Z,100406.22
2022-08-22T23:21:23.769Z,100407.91
2022-08-22T23:23:51.371Z,100413.13
2022-08-22T23:26:17.898Z,100419.41
2022-08-22T23:28:44.898Z,100417.47
2022-08-22T23:31:33.071Z,100423.41
2022-08-22T23:34:07.147Z,100431.22
2022-08-22T23:36:34.765Z,100432.66
2022-08-22T23:39:01.346Z,100442.16
2022-08-22T23:41:27.940Z,100436.13
2022-08-22T23:43:55.266Z,100437.63
2022-08-22T23:46:24.225Z,100443.56
2022-08-22T23:48:50.849Z,100446.34
2022-08-22T23:51:23.209Z,100457.22
2022-08-22T23:53:51.424Z,100456.56
2022-08-22T23:56:28.737Z,100455.13
2022-08-22T23:58:55.662Z,100453.00
